Gillett, Arkansas
Current Conditions -  °F | °C
As of 6:53 PM on Friday 24 Oct 2014 (Local Time) from KPBF Reporting Station
Clear Clear  
Wind Chill: 65°   Ceiling: Unl
Heat Index: 65°   Visibility: 10mi
Dew Point: 56°   Wind: 3mph
Humidity: 73%   Direction: 200°SSW
Pressure: 30.1"   Gusts: NA
Location:  34.12°N, 91.38°W
Report Text: KPBF 242353Z AUTO 20003KT 10SM CLR 18/13 A3010 RMK AO2 SLP192 T01830133 10239 20178 53001
Loading
Personal Weather Stations






























Interactive Weather Map
Tropical Storm Tracking
New forecast layout! Learn more

10-Day Weather Forecast

Advertisements
Track Severe Weather on mobile